createdAt,value
2022-10-04T00:02:34.583Z,41.44
2022-10-04T00:05:41.472Z,41.24
2022-10-04T00:08:49.281Z,41.14
2022-10-04T00:11:57.022Z,41.06
2022-10-04T00:15:03.283Z,41.55
2022-10-04T00:18:19.807Z,41.43
2022-10-04T00:21:24.210Z,41.35
2022-10-04T00:24:29.394Z,41.13
2022-10-04T00:27:32.384Z,41.23
2022-10-04T00:30:39.410Z,41.33
2022-10-04T00:33:44.593Z,41.06
2022-10-04T00:36:55.241Z,41.29
2022-10-04T00:40:02.376Z,40.94
2022-10-04T00:43:08.501Z,40.98
2022-10-04T00:46:15.240Z,41.12
2022-10-04T00:49:21.905Z,41.03
2022-10-04T00:52:30.434Z,41.39
2022-10-04T00:55:39.546Z,41.41
2022-10-04T00:59:04.890Z,40.97
2022-10-04T01:02:16.423Z,41.60
2022-10-04T01:05:24.530Z,41.34
2022-10-04T01:08:33.145Z,41.13
2022-10-04T01:11:41.468Z,41.22
2022-10-04T01:14:52.986Z,41.28
2022-10-04T01:18:14.404Z,41.47
2022-10-04T01:21:29.590Z,41.01
2022-10-04T01:24:37.850Z,41.18
2022-10-04T01:27:44.697Z,40.97
2022-10-04T01:30:53.074Z,41.32
2022-10-04T01:33:57.090Z,40.77
2022-10-04T01:37:01.423Z,40.92
2022-10-04T01:40:07.378Z,41.12
2022-10-04T01:43:14.383Z,41.25
2022-10-04T01:46:22.566Z,40.96
2022-10-04T01:49:31.332Z,40.92
2022-10-04T01:52:41.185Z,41.16
2022-10-04T01:55:50.134Z,41.07
2022-10-04T01:58:58.683Z,41.42
2022-10-04T02:02:07.119Z,41.36
2022-10-04T02:05:13.355Z,40.76
2022-10-04T02:08:19.250Z,41.36
2022-10-04T02:11:24.265Z,41.41
2022-10-04T02:14:29.971Z,41.09
2022-10-04T02:17:39.209Z,40.92
2022-10-04T02:20:43.816Z,41.21
2022-10-04T02:23:48.450Z,41.01
2022-10-04T02:26:54.594Z,41.11
2022-10-04T02:30:02.402Z,41.08
2022-10-04T02:33:04.889Z,40.72
2022-10-04T02:36:10.000Z,40.96
2022-10-04T02:39:17.582Z,41.35
2022-10-04T02:42:29.393Z,40.98
2022-10-04T02:45:41.283Z,40.89
2022-10-04T02:48:48.854Z,41.18
2022-10-04T02:51:55.519Z,41.37
2022-10-04T02:55:03.778Z,41.42
2022-10-04T02:58:15.544Z,41.44
2022-10-04T03:01:27.606Z,41.36
2022-10-04T03:04:33.761Z,41.21
2022-10-04T03:07:38.070Z,41.09
2022-10-04T03:10:44.279Z,41.26
2022-10-04T03:13:50.913Z,41.03
2022-10-04T03:16:57.141Z,41.14
2022-10-04T03:20:01.228Z,41.29
2022-10-04T03:23:06.141Z,41.17
2022-10-04T03:26:21.372Z,41.08
2022-10-04T03:29:29.605Z,41.63
2022-10-04T03:32:33.470Z,41.41
2022-10-04T03:35:40.466Z,41.57
2022-10-04T03:38:43.527Z,41.29
2022-10-04T03:41:46.631Z,40.99
2022-10-04T03:44:54.610Z,41.52
2022-10-04T03:48:05.423Z,41.51
2022-10-04T03:51:14.996Z,40.96
2022-10-04T03:54:24.186Z,41.04
2022-10-04T03:57:27.422Z,41.41
2022-10-04T04:00:32.754Z,41.70
2022-10-04T04:03:48.782Z,40.91
2022-10-04T04:07:02.501Z,41.13
2022-10-04T04:10:16.815Z,41.18
2022-10-04T04:13:25.397Z,41.32
2022-10-04T04:16:30.207Z,41.27
2022-10-04T04:19:34.831Z,41.12
2022-10-04T04:22:39.305Z,41.32
2022-10-04T04:25:46.029Z,41.05
2022-10-04T04:28:52.529Z,41.38
2022-10-04T04:32:02.235Z,41.55
2022-10-04T04:35:08.529Z,41.07
2022-10-04T04:38:19.174Z,41.09
2022-10-04T04:41:24.122Z,41.53
2022-10-04T04:44:27.961Z,41.21
2022-10-04T04:47:34.983Z,41.35
2022-10-04T04:50:41.181Z,41.27
2022-10-04T04:53:44.697Z,41.37
2022-10-04T04:56:51.124Z,41.01
2022-10-04T04:59:58.471Z,40.86
2022-10-04T05:03:05.301Z,41.01
2022-10-04T05:06:26.437Z,41.05
2022-10-04T05:09:34.892Z,41.14
2022-10-04T05:12:37.990Z,41.19
2022-10-04T05:15:43.403Z,40.93
2022-10-04T05:18:48.195Z,41.31
2022-10-04T05:21:54.293Z,40.94
2022-10-04T05:25:00.699Z,41.00
2022-10-04T05:28:07.109Z,41.06
2022-10-04T05:31:37.187Z,41.11
2022-10-04T05:34:45.433Z,40.45
2022-10-04T05:38:03.537Z,40.60
2022-10-04T05:41:10.472Z,40.23
2022-10-04T05:44:21.785Z,40.04
2022-10-04T05:47:28.789Z,39.55
2022-10-04T05:50:36.280Z,39.69
2022-10-04T05:53:39.794Z,39.35
2022-10-04T05:57:16.419Z,39.49
2022-10-04T06:00:21.864Z,39.11
2022-10-04T06:03:46.250Z,39.21
2022-10-04T06:06:57.140Z,39.24
2022-10-04T06:10:26.814Z,38.94
2022-10-04T06:13:59.496Z,39.28
2022-10-04T06:17:31.097Z,39.01
2022-10-04T06:21:02.540Z,38.67
2022-10-04T06:24:13.055Z,38.73
2022-10-04T06:27:21.789Z,38.79
2022-10-04T06:30:25.944Z,38.97
2022-10-04T06:33:45.142Z,39.61
2022-10-04T06:37:05.785Z,40.97
2022-10-04T06:40:38.703Z,39.75
2022-10-04T06:44:06.176Z,38.79
2022-10-04T06:47:25.200Z,38.68
2022-10-04T06:50:36.745Z,38.64
2022-10-04T06:53:51.989Z,38.43
2022-10-04T06:57:22.917Z,38.86
2022-10-04T07:00:27.354Z,38.70
2022-10-04T07:03:39.417Z,39.50
2022-10-04T07:06:49.349Z,39.03
2022-10-04T07:09:56.037Z,38.80
2022-10-04T07:13:16.412Z,39.21
2022-10-04T07:16:40.646Z,38.90
2022-10-04T07:19:47.936Z,39.13
2022-10-04T07:22:59.641Z,38.54
2022-10-04T07:26:07.998Z,39.11
2022-10-04T07:29:23.233Z,38.50
2022-10-04T07:32:30.029Z,38.81
2022-10-04T07:35:45.121Z,38.27
2022-10-04T07:38:54.426Z,38.59
2022-10-04T07:42:02.450Z,38.23
2022-10-04T07:45:17.628Z,38.18
2022-10-04T07:48:24.965Z,38.19
2022-10-04T07:51:35.351Z,38.52
2022-10-04T07:54:44.877Z,38.21
2022-10-04T07:57:58.730Z,37.27
2022-10-04T08:01:08.105Z,37.92
2022-10-04T08:04:30.145Z,37.23
2022-10-04T08:07:46.442Z,37.27
2022-10-04T08:11:01.704Z,37.05
2022-10-04T08:14:19.667Z,37.35
2022-10-04T08:17:38.182Z,36.97
2022-10-04T08:20:49.951Z,36.89
2022-10-04T08:24:16.062Z,36.88
2022-10-04T08:27:31.696Z,36.84
2022-10-04T08:30:49.211Z,36.99
2022-10-04T08:34:11.002Z,37.72
2022-10-04T08:37:29.505Z,37.47
2022-10-04T08:41:14.930Z,37.58
2022-10-04T08:44:51.298Z,37.50
2022-10-04T08:48:26.624Z,37.12
2022-10-04T08:52:14.017Z,37.25
2022-10-04T08:55:53.819Z,37.44
2022-10-04T08:59:23.696Z,37.19
2022-10-04T09:02:48.694Z,37.49
2022-10-04T09:06:01.603Z,37.28
2022-10-04T09:09:49.335Z,37.83
2022-10-04T09:13:17.704Z,37.13
2022-10-04T09:16:28.792Z,37.11
2022-10-04T09:19:48.758Z,37.25
2022-10-04T09:23:04.058Z,36.98
2022-10-04T09:26:22.001Z,37.03
2022-10-04T09:29:53.194Z,36.62
2022-10-04T09:33:30.535Z,36.74
2022-10-04T09:36:51.037Z,36.84
2022-10-04T09:40:30.603Z,36.57
2022-10-04T09:44:13.763Z,36.29
2022-10-04T09:47:32.090Z,36.11
2022-10-04T09:51:08.309Z,36.58
2022-10-04T09:54:45.821Z,36.73
2022-10-04T09:58:16.026Z,37.06
2022-10-04T10:01:29.556Z,37.16
2022-10-04T10:04:50.056Z,37.02
2022-10-04T10:08:01.508Z,36.96
2022-10-04T10:11:31.966Z,36.71
2022-10-04T10:14:57.253Z,36.87
2022-10-04T10:18:10.195Z,36.47
2022-10-04T10:21:30.301Z,36.52
2022-10-04T10:25:12.046Z,36.95
2022-10-04T10:28:36.438Z,37.29
2022-10-04T10:31:56.728Z,37.26
2022-10-04T10:35:29.308Z,37.03
2022-10-04T10:38:58.705Z,37.12
2022-10-04T10:42:27.729Z,37.31
2022-10-04T10:46:00.478Z,37.27
2022-10-04T10:49:23.878Z,37.72
2022-10-04T10:53:05.929Z,37.72
2022-10-04T10:56:47.982Z,37.08
2022-10-04T11:00:20.139Z,37.29
2022-10-04T11:03:48.592Z,37.46
2022-10-04T11:07:38.045Z,37.57
2022-10-04T11:11:04.428Z,37.63
2022-10-04T11:14:37.211Z,37.59
2022-10-04T11:18:07.297Z,37.85
2022-10-04T11:21:35.922Z,37.54
2022-10-04T11:25:04.679Z,37.81
2022-10-04T11:28:14.352Z,38.09
2022-10-04T11:31:55.886Z,37.64
2022-10-04T11:35:35.210Z,37.87
2022-10-04T11:38:53.367Z,37.44
2022-10-04T11:42:02.426Z,38.12
2022-10-04T11:45:33.973Z,37.99
2022-10-04T11:48:48.788Z,37.81
2022-10-04T11:52:19.739Z,38.17
2022-10-04T11:55:54.231Z,37.54
2022-10-04T11:59:12.362Z,37.58
2022-10-04T12:02:42.381Z,37.40
2022-10-04T12:06:04.346Z,38.02
2022-10-04T12:09:21.326Z,37.78
2022-10-04T12:12:54.501Z,37.74
2022-10-04T12:16:30.535Z,37.49
2022-10-04T12:20:01.006Z,37.35
2022-10-04T12:23:32.215Z,37.65
2022-10-04T12:27:05.739Z,37.37
2022-10-04T12:30:52.046Z,37.44
2022-10-04T12:34:06.390Z,37.81
2022-10-04T12:37:22.033Z,37.80
2022-10-04T12:40:33.296Z,37.86
2022-10-04T12:43:47.476Z,37.15
2022-10-04T12:47:04.483Z,37.49
2022-10-04T12:50:18.890Z,37.24
2022-10-04T12:53:34.453Z,37.23
2022-10-04T12:56:48.591Z,37.52
2022-10-04T13:00:03.595Z,36.99
2022-10-04T13:03:38.300Z,37.23
2022-10-04T13:06:55.187Z,36.81
2022-10-04T13:10:24.214Z,36.82
2022-10-04T13:13:47.883Z,36.86
2022-10-04T13:20:41.453Z,37.08
2022-10-04T13:23:59.594Z,36.82
2022-10-04T13:27:06.114Z,36.70
2022-10-04T13:30:20.449Z,36.90
2022-10-04T13:33:35.014Z,36.63
2022-10-04T13:36:52.164Z,37.03
2022-10-04T13:40:34.194Z,36.36
2022-10-04T13:44:05.342Z,36.41
2022-10-04T13:47:29.526Z,36.46
2022-10-04T13:50:45.987Z,36.36
2022-10-04T13:54:16.856Z,36.24
2022-10-04T13:57:25.645Z,36.39
2022-10-04T14:00:52.604Z,36.41
2022-10-04T14:04:11.767Z,35.96
2022-10-04T14:07:46.707Z,36.20
2022-10-04T14:11:21.366Z,36.22
2022-10-04T14:15:09.307Z,36.09
2022-10-04T14:18:54.535Z,36.38
2022-10-04T14:22:44.798Z,36.31
2022-10-04T14:26:07.510Z,36.03
2022-10-04T14:29:46.356Z,35.81
2022-10-04T14:33:16.560Z,36.21
2022-10-04T14:37:06.628Z,36.20
2022-10-04T14:40:46.584Z,36.32
2022-10-04T14:44:15.220Z,35.86
2022-10-04T14:47:42.808Z,35.98
2022-10-04T14:51:11.741Z,36.53
2022-10-04T14:54:29.547Z,35.96
2022-10-04T14:57:54.133Z,36.03
2022-10-04T15:01:15.687Z,36.63
2022-10-04T15:04:30.474Z,37.01
2022-10-04T15:07:37.231Z,37.08
2022-10-04T15:10:50.249Z,37.21
2022-10-04T15:13:56.168Z,37.30
2022-10-04T15:17:02.535Z,37.11
2022-10-04T15:20:20.226Z,37.51
2022-10-04T15:23:34.991Z,37.65
2022-10-04T15:27:09.391Z,37.71
2022-10-04T15:30:22.454Z,37.56
2022-10-04T15:33:34.528Z,37.46
2022-10-04T15:37:00.279Z,37.43
2022-10-04T15:40:29.826Z,37.49
2022-10-04T15:43:43.350Z,37.63
2022-10-04T15:46:52.230Z,37.89
2022-10-04T15:50:27.429Z,38.40
2022-10-04T15:53:50.266Z,38.35
2022-10-04T15:56:57.605Z,38.47
2022-10-04T16:00:08.890Z,38.29
2022-10-04T16:03:21.071Z,38.34
2022-10-04T16:06:29.784Z,38.57
2022-10-04T16:09:46.508Z,38.70
2022-10-04T16:13:36.550Z,38.44
2022-10-04T16:17:00.052Z,39.26
2022-10-04T16:20:47.198Z,39.21
2022-10-04T16:24:40.197Z,39.70
2022-10-04T16:28:08.247Z,39.41
2022-10-04T16:31:55.570Z,39.78
2022-10-04T16:35:01.439Z,39.52
2022-10-04T16:38:17.413Z,39.88
2022-10-04T16:41:35.528Z,39.98
2022-10-04T16:44:50.469Z,39.73
2022-10-04T16:47:58.684Z,39.60
2022-10-04T16:51:24.006Z,40.19
2022-10-04T16:55:01.141Z,40.49
2022-10-04T16:58:46.336Z,40.21
2022-10-04T17:02:14.867Z,40.83
2022-10-04T17:05:48.524Z,40.48
2022-10-04T17:09:09.310Z,39.99
2022-10-04T17:12:19.883Z,40.54
2022-10-04T17:15:49.763Z,40.26
2022-10-04T17:19:14.219Z,40.42
2022-10-04T17:22:28.876Z,40.56
2022-10-04T17:25:45.602Z,40.27
2022-10-04T17:28:56.624Z,40.62
2022-10-04T17:32:04.632Z,40.45
2022-10-04T17:35:38.839Z,40.61
2022-10-04T17:38:51.342Z,40.31
2022-10-04T17:42:07.187Z,40.34
2022-10-04T17:45:30.089Z,40.23
2022-10-04T17:48:56.772Z,40.38
2022-10-04T17:52:22.763Z,40.42
2022-10-04T17:55:29.082Z,39.91
2022-10-04T17:58:41.969Z,40.32
2022-10-04T18:01:49.651Z,40.36
2022-10-04T18:04:56.850Z,40.40
2022-10-04T18:08:04.081Z,40.13
2022-10-04T18:11:16.841Z,40.67
2022-10-04T18:14:52.344Z,40.12
2022-10-04T18:18:16.072Z,40.28
2022-10-04T18:21:27.462Z,40.39
2022-10-04T18:24:31.948Z,40.82
2022-10-04T18:27:50.387Z,40.42
2022-10-04T18:30:59.054Z,40.77
2022-10-04T18:34:16.786Z,40.64
2022-10-04T18:37:22.323Z,40.75
2022-10-04T18:40:28.625Z,40.71
2022-10-04T18:43:33.964Z,41.05
2022-10-04T18:46:40.501Z,41.13
2022-10-04T18:49:49.292Z,40.94
2022-10-04T18:53:14.876Z,41.15
2022-10-04T18:56:22.515Z,41.05
2022-10-04T18:59:56.703Z,41.31
2022-10-04T19:03:08.052Z,41.18
2022-10-04T19:06:17.217Z,41.19
2022-10-04T19:09:28.918Z,41.22
2022-10-04T19:12:42.201Z,41.33
2022-10-04T19:15:57.352Z,41.17
2022-10-04T19:19:21.325Z,41.23
2022-10-04T19:22:39.116Z,41.32
2022-10-04T19:26:10.022Z,40.97
2022-10-04T19:29:23.338Z,40.04
2022-10-04T19:32:35.877Z,40.36
2022-10-04T19:35:56.170Z,39.99
2022-10-04T19:39:12.480Z,39.92
2022-10-04T19:42:19.458Z,39.69
2022-10-04T19:45:34.185Z,39.92
2022-10-04T19:48:42.995Z,39.81
2022-10-04T19:51:51.508Z,39.78
2022-10-04T19:55:02.955Z,40.28
2022-10-04T19:58:19.531Z,39.97
2022-10-04T20:01:24.908Z,40.19
2022-10-04T20:04:38.652Z,39.87
2022-10-04T20:07:41.918Z,39.90
2022-10-04T20:10:45.649Z,39.62
2022-10-04T20:14:10.262Z,39.94
2022-10-04T20:17:31.577Z,39.69
2022-10-04T20:21:05.426Z,39.88
2022-10-04T20:24:17.516Z,39.68
2022-10-04T20:27:53.746Z,39.85
2022-10-04T20:30:58.393Z,39.63
2022-10-04T20:34:33.127Z,39.74
2022-10-04T20:38:31.219Z,39.98
2022-10-04T20:42:22.071Z,39.87
2022-10-04T20:45:27.927Z,39.85
2022-10-04T20:48:33.093Z,39.84
2022-10-04T20:51:37.961Z,39.54
2022-10-04T20:54:40.948Z,39.55
2022-10-04T20:57:43.967Z,40.00
2022-10-04T21:00:53.637Z,39.81
2022-10-04T21:04:13.824Z,40.02
2022-10-04T21:07:21.059Z,40.17
2022-10-04T21:10:24.033Z,39.82
2022-10-04T21:13:44.588Z,39.86
2022-10-04T21:16:49.822Z,39.98
2022-10-04T21:19:53.522Z,40.02
2022-10-04T21:23:10.096Z,40.04
2022-10-04T21:26:20.878Z,39.95
2022-10-04T21:29:24.541Z,39.99
2022-10-04T21:32:28.899Z,39.80
2022-10-04T21:35:31.931Z,40.11
2022-10-04T21:38:36.451Z,40.04
2022-10-04T21:41:39.488Z,40.00
2022-10-04T21:44:42.503Z,40.26
2022-10-04T21:47:45.469Z,39.96
2022-10-04T21:50:48.791Z,40.26
2022-10-04T21:53:53.201Z,40.36
2022-10-04T21:56:56.153Z,40.24
2022-10-04T21:59:59.147Z,39.99
2022-10-04T22:03:02.118Z,39.77
2022-10-04T22:06:05.297Z,40.14
2022-10-04T22:09:10.003Z,39.97
2022-10-04T22:12:12.981Z,40.09
2022-10-04T22:15:16.035Z,39.70
2022-10-04T22:18:19.016Z,39.92
2022-10-04T22:21:22.039Z,39.86
2022-10-04T22:24:26.432Z,39.69
2022-10-04T22:27:30.891Z,39.88
2022-10-04T22:30:34.445Z,40.05
2022-10-04T22:33:38.911Z,39.95
2022-10-04T22:36:41.997Z,39.96
2022-10-04T22:39:46.331Z,39.76
2022-10-04T22:42:52.853Z,39.82
2022-10-04T22:45:56.499Z,39.83
2022-10-04T22:48:59.519Z,39.85
2022-10-04T22:52:10.892Z,39.45
2022-10-04T22:55:19.091Z,39.86
2022-10-04T22:58:22.420Z,39.89
2022-10-04T23:01:27.426Z,39.92
2022-10-04T23:04:30.449Z,39.78
2022-10-04T23:07:38.072Z,39.59
2022-10-04T23:10:42.835Z,39.60
2022-10-04T23:13:45.903Z,39.52
2022-10-04T23:16:49.231Z,39.66
2022-10-04T23:19:55.372Z,39.90
2022-10-04T23:23:01.017Z,39.80
2022-10-04T23:32:21.245Z,39.85
2022-10-04T23:35:26.049Z,40.09
2022-10-04T23:38:30.487Z,40.00
2022-10-04T23:41:34.889Z,39.56
2022-10-04T23:44:39.365Z,39.79
2022-10-04T23:47:42.415Z,39.53
2022-10-04T23:50:45.392Z,39.90
2022-10-04T23:53:50.222Z,39.51
2022-10-04T23:56:54.735Z,40.00
